sensor_id;sensor_type;location;lat;lon;timestamp;temperature;humidity
7762;DHT22;3925;48.636;9.516;2022-11-20T00:01:04;7.20;99.90
7762;DHT22;3925;48.636;9.516;2022-11-20T00:03:31;7.20;99.90
7762;DHT22;3925;48.636;9.516;2022-11-20T00:06:01;7.30;99.90
7762;DHT22;3925;48.636;9.516;2022-11-20T00:08:27;7.10;99.90
7762;DHT22;3925;48.636;9.516;2022-11-20T00:10:54;7.20;99.90
7762;DHT22;3925;48.636;9.516;2022-11-20T00:13:22;7.10;99.90
7762;DHT22;3925;48.636;9.516;2022-11-20T00:15:48;7.20;99.90
7762;DHT22;3925;48.636;9.516;2022-11-20T00:18:22;7.20;99.90
7762;DHT22;3925;48.636;9.516;2022-11-20T00:20:49;7.10;99.90
7762;DHT22;3925;48.636;9.516;2022-11-20T00:23:17;7.00;99.90
7762;DHT22;3925;48.636;9.516;2022-11-20T00:25:44;7.10;99.90
7762;DHT22;3925;48.636;9.516;2022-11-20T00:28:11;7.00;99.90
7762;DHT22;3925;48.636;9.516;2022-11-20T00:30:38;6.90;99.90
7762;DHT22;3925;48.636;9.516;2022-11-20T00:33:05;6.90;99.90
7762;DHT22;3925;48.636;9.516;2022-11-20T00:35:32;6.90;99.90
7762;DHT22;3925;48.636;9.516;2022-11-20T00:37:59;6.90;99.90
7762;DHT22;3925;48.636;9.516;2022-11-20T00:40:27;6.80;99.90
7762;DHT22;3925;48.636;9.516;2022-11-20T00:42:54;6.70;99.90
7762;DHT22;3925;48.636;9.516;2022-11-20T00:45:21;6.70;99.90
7762;DHT22;3925;48.636;9.516;2022-11-20T00:47:48;6.70;99.90
7762;DHT22;3925;48.636;9.516;2022-11-20T00:50:15;6.70;99.90
7762;DHT22;3925;48.636;9.516;2022-11-20T00:52:41;6.60;99.90
7762;DHT22;3925;48.636;9.516;2022-11-20T00:55:08;6.60;99.90
7762;DHT22;3925;48.636;9.516;2022-11-20T00:57:36;6.50;99.90
7762;DHT22;3925;48.636;9.516;2022-11-20T01:00:04;6.50;99.90
7762;DHT22;3925;48.636;9.516;2022-11-20T01:02:31;6.50;99.90
7762;DHT22;3925;48.636;9.516;2022-11-20T01:04:58;6.40;99.90
7762;DHT22;3925;48.636;9.516;2022-11-20T01:07:25;6.40;99.90
7762;DHT22;3925;48.636;9.516;2022-11-20T01:09:52;6.40;99.90
7762;DHT22;3925;48.636;9.516;2022-11-20T01:12:19;6.50;99.90
7762;DHT22;3925;48.636;9.516;2022-11-20T01:14:48;6.50;99.90
7762;DHT22;3925;48.636;9.516;2022-11-20T01:17:15;6.40;99.90
7762;DHT22;3925;48.636;9.516;2022-11-20T01:19:42;6.40;99.90
7762;DHT22;3925;48.636;9.516;2022-11-20T01:22:09;6.40;99.90
7762;DHT22;3925;48.636;9.516;2022-11-20T01:24:36;6.40;99.90
7762;DHT22;3925;48.636;9.516;2022-11-20T01:27:03;6.40;99.90
7762;DHT22;3925;48.636;9.516;2022-11-20T01:29:30;6.30;99.90
7762;DHT22;3925;48.636;9.516;2022-11-20T01:31:58;6.30;99.90
7762;DHT22;3925;48.636;9.516;2022-11-20T01:34:25;6.20;99.90
7762;DHT22;3925;48.636;9.516;2022-11-20T01:36:52;6.30;99.90
7762;DHT22;3925;48.636;9.516;2022-11-20T01:39:21;6.30;99.90
7762;DHT22;3925;48.636;9.516;2022-11-20T01:41:49;6.30;99.90
7762;DHT22;3925;48.636;9.516;2022-11-20T01:45:01;6.30;99.90
7762;DHT22;3925;48.636;9.516;2022-11-20T01:47:33;6.30;99.90
7762;DHT22;3925;48.636;9.516;2022-11-20T01:50:05;6.30;99.90
7762;DHT22;3925;48.636;9.516;2022-11-20T01:52:34;6.40;99.90
7762;DHT22;3925;48.636;9.516;2022-11-20T01:55:06;6.40;99.90
7762;DHT22;3925;48.636;9.516;2022-11-20T01:57:34;6.40;99.90
7762;DHT22;3925;48.636;9.516;2022-11-20T02:00:05;6.50;99.90
7762;DHT22;3925;48.636;9.516;2022-11-20T02:02:34;6.50;99.90
7762;DHT22;3925;48.636;9.516;2022-11-20T02:05:18;6.50;99.90
7762;DHT22;3925;48.636;9.516;2022-11-20T02:07:46;6.40;99.90
7762;DHT22;3925;48.636;9.516;2022-11-20T02:10:14;6.30;99.90
7762;DHT22;3925;48.636;9.516;2022-11-20T02:12:41;6.40;99.90
7762;DHT22;3925;48.636;9.516;2022-11-20T02:15:25;6.40;99.90
7762;DHT22;3925;48.636;9.516;2022-11-20T02:17:54;6.40;99.90
7762;DHT22;3925;48.636;9.516;2022-11-20T02:20:21;6.40;99.90
7762;DHT22;3925;48.636;9.516;2022-11-20T02:22:54;6.20;99.90
7762;DHT22;3925;48.636;9.516;2022-11-20T02:25:26;6.20;99.90
7762;DHT22;3925;48.636;9.516;2022-11-20T02:27:54;6.30;99.90
7762;DHT22;3925;48.636;9.516;2022-11-20T02:30:21;6.40;99.90
7762;DHT22;3925;48.636;9.516;2022-11-20T02:32:48;6.40;99.90
7762;DHT22;3925;48.636;9.516;2022-11-20T02:35:40;6.40;99.90
7762;DHT22;3925;48.636;9.516;2022-11-20T02:38:08;6.30;99.90
7762;DHT22;3925;48.636;9.516;2022-11-20T02:40:36;6.40;99.90
7762;DHT22;3925;48.636;9.516;2022-11-20T02:43:03;6.50;99.90
7762;DHT22;3925;48.636;9.516;2022-11-20T02:45:30;6.40;99.90
7762;DHT22;3925;48.636;9.516;2022-11-20T02:47:57;6.40;99.90
7762;DHT22;3925;48.636;9.516;2022-11-20T02:50:24;6.40;99.90
7762;DHT22;3925;48.636;9.516;2022-11-20T02:52:51;6.50;99.90
7762;DHT22;3925;48.636;9.516;2022-11-20T02:55:18;6.50;99.90
7762;DHT22;3925;48.636;9.516;2022-11-20T02:57:46;6.50;99.90
7762;DHT22;3925;48.636;9.516;2022-11-20T03:00:13;6.40;99.90
7762;DHT22;3925;48.636;9.516;2022-11-20T03:02:40;6.40;99.90
7762;DHT22;3925;48.636;9.516;2022-11-20T03:05:07;6.40;99.90
7762;DHT22;3925;48.636;9.516;2022-11-20T03:07:34;6.30;99.90
7762;DHT22;3925;48.636;9.516;2022-11-20T03:10:01;6.20;99.90
7762;DHT22;3925;48.636;9.516;2022-11-20T03:12:28;6.30;99.90
7762;DHT22;3925;48.636;9.516;2022-11-20T03:14:56;6.30;99.90
7762;DHT22;3925;48.636;9.516;2022-11-20T03:17:23;6.40;99.90
7762;DHT22;3925;48.636;9.516;2022-11-20T03:19:50;6.40;99.90
7762;DHT22;3925;48.636;9.516;2022-11-20T03:22:17;6.50;99.90
7762;DHT22;3925;48.636;9.516;2022-11-20T03:24:43;6.50;99.90
7762;DHT22;3925;48.636;9.516;2022-11-20T03:27:10;6.50;99.90
7762;DHT22;3925;48.636;9.516;2022-11-20T03:29:37;6.60;99.90
7762;DHT22;3925;48.636;9.516;2022-11-20T03:32:05;6.50;99.90
7762;DHT22;3925;48.636;9.516;2022-11-20T03:34:32;6.50;99.90
7762;DHT22;3925;48.636;9.516;2022-11-20T03:36:59;6.70;99.90
7762;DHT22;3925;48.636;9.516;2022-11-20T03:39:26;6.70;99.90
7762;DHT22;3925;48.636;9.516;2022-11-20T03:41:53;6.60;99.90
7762;DHT22;3925;48.636;9.516;2022-11-20T03:44:21;6.70;99.90
7762;DHT22;3925;48.636;9.516;2022-11-20T03:46:48;6.90;99.90
7762;DHT22;3925;48.636;9.516;2022-11-20T03:49:16;6.90;99.90
7762;DHT22;3925;48.636;9.516;2022-11-20T03:51:43;6.90;99.90
7762;DHT22;3925;48.636;9.516;2022-11-20T03:54:10;6.90;99.90
7762;DHT22;3925;48.636;9.516;2022-11-20T03:56:37;6.80;99.90
7762;DHT22;3925;48.636;9.516;2022-11-20T03:59:05;6.90;99.90
7762;DHT22;3925;48.636;9.516;2022-11-20T04:01:34;6.90;99.90
7762;DHT22;3925;48.636;9.516;2022-11-20T04:04:01;6.90;99.90
7762;DHT22;3925;48.636;9.516;2022-11-20T04:06:33;7.00;99.90
7762;DHT22;3925;48.636;9.516;2022-11-20T04:09:01;7.00;99.90
7762;DHT22;3925;48.636;9.516;2022-11-20T04:11:28;7.00;99.90
7762;DHT22;3925;48.636;9.516;2022-11-20T04:13:57;7.00;99.90
7762;DHT22;3925;48.636;9.516;2022-11-20T04:16:25;7.00;99.90
7762;DHT22;3925;48.636;9.516;2022-11-20T04:18:52;6.90;99.90
7762;DHT22;3925;48.636;9.516;2022-11-20T04:21:20;7.00;99.90
7762;DHT22;3925;48.636;9.516;2022-11-20T04:23:48;6.90;99.90
7762;DHT22;3925;48.636;9.516;2022-11-20T04:26:15;6.90;99.90
7762;DHT22;3925;48.636;9.516;2022-11-20T04:28:42;6.80;99.90
7762;DHT22;3925;48.636;9.516;2022-11-20T04:31:10;6.80;99.90
7762;DHT22;3925;48.636;9.516;2022-11-20T04:33:37;6.80;99.90
7762;DHT22;3925;48.636;9.516;2022-11-20T04:36:06;6.90;99.90
7762;DHT22;3925;48.636;9.516;2022-11-20T04:38:34;6.90;99.90
7762;DHT22;3925;48.636;9.516;2022-11-20T04:41:03;6.90;99.90
7762;DHT22;3925;48.636;9.516;2022-11-20T04:43:32;6.90;99.90
7762;DHT22;3925;48.636;9.516;2022-11-20T04:46:00;6.90;99.90
7762;DHT22;3925;48.636;9.516;2022-11-20T04:48:28;6.90;99.90
7762;DHT22;3925;48.636;9.516;2022-11-20T04:50:55;7.00;99.90
7762;DHT22;3925;48.636;9.516;2022-11-20T04:53:22;7.00;99.90
7762;DHT22;3925;48.636;9.516;2022-11-20T04:55:49;7.00;99.90
7762;DHT22;3925;48.636;9.516;2022-11-20T04:58:17;6.90;99.90
7762;DHT22;3925;48.636;9.516;2022-11-20T05:00:44;7.00;99.90
7762;DHT22;3925;48.636;9.516;2022-11-20T05:03:11;6.90;99.90
7762;DHT22;3925;48.636;9.516;2022-11-20T05:05:38;6.90;99.90
7762;DHT22;3925;48.636;9.516;2022-11-20T05:08:05;6.90;99.90
7762;DHT22;3925;48.636;9.516;2022-11-20T05:10:31;6.80;99.90
7762;DHT22;3925;48.636;9.516;2022-11-20T05:12:58;6.80;99.90
7762;DHT22;3925;48.636;9.516;2022-11-20T05:15:26;6.90;99.90
7762;DHT22;3925;48.636;9.516;2022-11-20T05:17:53;6.90;99.90
7762;DHT22;3925;48.636;9.516;2022-11-20T05:20:20;6.90;99.90
7762;DHT22;3925;48.636;9.516;2022-11-20T05:22:47;6.90;99.90
7762;DHT22;3925;48.636;9.516;2022-11-20T05:25:14;7.00;99.90
7762;DHT22;3925;48.636;9.516;2022-11-20T05:27:41;6.90;99.90
7762;DHT22;3925;48.636;9.516;2022-11-20T05:30:09;7.00;99.90
7762;DHT22;3925;48.636;9.516;2022-11-20T05:32:37;7.00;99.90
7762;DHT22;3925;48.636;9.516;2022-11-20T05:35:05;7.00;99.90
7762;DHT22;3925;48.636;9.516;2022-11-20T05:37:32;7.00;99.90
7762;DHT22;3925;48.636;9.516;2022-11-20T05:39:59;7.00;99.90
7762;DHT22;3925;48.636;9.516;2022-11-20T05:42:26;7.00;99.90
7762;DHT22;3925;48.636;9.516;2022-11-20T05:44:59;7.00;99.90
7762;DHT22;3925;48.636;9.516;2022-11-20T05:47:27;7.00;99.90
7762;DHT22;3925;48.636;9.516;2022-11-20T05:49:55;7.00;99.90
7762;DHT22;3925;48.636;9.516;2022-11-20T05:52:22;7.00;99.90
7762;DHT22;3925;48.636;9.516;2022-11-20T05:54:49;7.10;99.90
7762;DHT22;3925;48.636;9.516;2022-11-20T05:57:16;7.10;99.90
7762;DHT22;3925;48.636;9.516;2022-11-20T05:59:43;7.10;99.90
7762;DHT22;3925;48.636;9.516;2022-11-20T06:02:10;7.10;99.90
7762;DHT22;3925;48.636;9.516;2022-11-20T06:04:36;7.10;99.90
7762;DHT22;3925;48.636;9.516;2022-11-20T06:07:06;7.10;99.90
7762;DHT22;3925;48.636;9.516;2022-11-20T06:09:33;7.00;99.90
7762;DHT22;3925;48.636;9.516;2022-11-20T06:12:00;7.00;99.90
7762;DHT22;3925;48.636;9.516;2022-11-20T06:14:27;7.00;99.90
7762;DHT22;3925;48.636;9.516;2022-11-20T06:16:54;7.00;99.90
7762;DHT22;3925;48.636;9.516;2022-11-20T06:19:20;7.10;99.90
7762;DHT22;3925;48.636;9.516;2022-11-20T06:21:47;7.10;99.90
7762;DHT22;3925;48.636;9.516;2022-11-20T06:24:16;7.00;99.90
7762;DHT22;3925;48.636;9.516;2022-11-20T06:26:44;7.00;99.90
7762;DHT22;3925;48.636;9.516;2022-11-20T06:29:11;7.10;99.90
7762;DHT22;3925;48.636;9.516;2022-11-20T06:31:38;7.00;99.90
7762;DHT22;3925;48.636;9.516;2022-11-20T06:34:05;7.00;99.90
7762;DHT22;3925;48.636;9.516;2022-11-20T06:36:32;7.00;99.90
7762;DHT22;3925;48.636;9.516;2022-11-20T06:38:59;7.00;99.90
7762;DHT22;3925;48.636;9.516;2022-11-20T06:41:28;7.10;99.90
7762;DHT22;3925;48.636;9.516;2022-11-20T06:43:55;7.20;99.90
7762;DHT22;3925;48.636;9.516;2022-11-20T06:46:22;7.20;99.90
7762;DHT22;3925;48.636;9.516;2022-11-20T06:48:49;7.20;99.90
7762;DHT22;3925;48.636;9.516;2022-11-20T06:51:17;7.20;99.90
7762;DHT22;3925;48.636;9.516;2022-11-20T06:53:44;7.20;99.90
7762;DHT22;3925;48.636;9.516;2022-11-20T06:56:10;7.20;99.90
7762;DHT22;3925;48.636;9.516;2022-11-20T06:58:39;7.10;99.90
7762;DHT22;3925;48.636;9.516;2022-11-20T07:01:07;7.10;99.90
7762;DHT22;3925;48.636;9.516;2022-11-20T07:03:35;7.10;99.90
7762;DHT22;3925;48.636;9.516;2022-11-20T07:06:02;7.10;99.90
7762;DHT22;3925;48.636;9.516;2022-11-20T07:08:29;7.10;99.90
7762;DHT22;3925;48.636;9.516;2022-11-20T07:10:57;7.20;99.90
7762;DHT22;3925;48.636;9.516;2022-11-20T07:13:25;7.20;99.90
7762;DHT22;3925;48.636;9.516;2022-11-20T07:15:53;7.20;99.90
7762;DHT22;3925;48.636;9.516;2022-11-20T07:18:20;7.30;99.90
7762;DHT22;3925;48.636;9.516;2022-11-20T07:20:47;7.20;99.90
7762;DHT22;3925;48.636;9.516;2022-11-20T07:23:14;7.20;99.90
7762;DHT22;3925;48.636;9.516;2022-11-20T07:25:41;7.20;99.90
7762;DHT22;3925;48.636;9.516;2022-11-20T07:28:08;7.20;99.90
7762;DHT22;3925;48.636;9.516;2022-11-20T07:30:36;7.30;99.90
7762;DHT22;3925;48.636;9.516;2022-11-20T07:33:04;7.30;99.90
7762;DHT22;3925;48.636;9.516;2022-11-20T07:35:31;7.30;99.90
7762;DHT22;3925;48.636;9.516;2022-11-20T07:37:59;7.30;99.90
7762;DHT22;3925;48.636;9.516;2022-11-20T07:40:25;7.30;99.90
7762;DHT22;3925;48.636;9.516;2022-11-20T07:42:54;7.20;99.90
7762;DHT22;3925;48.636;9.516;2022-11-20T07:45:22;7.20;99.90
7762;DHT22;3925;48.636;9.516;2022-11-20T07:47:50;7.20;99.90
7762;DHT22;3925;48.636;9.516;2022-11-20T07:50:19;7.30;99.90
7762;DHT22;3925;48.636;9.516;2022-11-20T07:52:46;7.20;99.90
7762;DHT22;3925;48.636;9.516;2022-11-20T07:55:13;7.30;99.90
7762;DHT22;3925;48.636;9.516;2022-11-20T07:57:40;7.30;99.90
7762;DHT22;3925;48.636;9.516;2022-11-20T08:00:09;7.40;99.90
7762;DHT22;3925;48.636;9.516;2022-11-20T08:02:37;7.40;99.90
7762;DHT22;3925;48.636;9.516;2022-11-20T08:05:05;7.40;99.90
7762;DHT22;3925;48.636;9.516;2022-11-20T08:07:36;7.40;99.90
7762;DHT22;3925;48.636;9.516;2022-11-20T08:10:05;7.40;99.90
7762;DHT22;3925;48.636;9.516;2022-11-20T08:12:32;7.40;99.90
7762;DHT22;3925;48.636;9.516;2022-11-20T08:15:16;7.60;99.90
7762;DHT22;3925;48.636;9.516;2022-11-20T08:17:43;7.60;99.90
7762;DHT22;3925;48.636;9.516;2022-11-20T08:20:10;7.60;99.90
7762;DHT22;3925;48.636;9.516;2022-11-20T08:22:39;7.60;99.90
7762;DHT22;3925;48.636;9.516;2022-11-20T08:25:06;7.70;99.90
7762;DHT22;3925;48.636;9.516;2022-11-20T08:27:33;7.70;99.90
7762;DHT22;3925;48.636;9.516;2022-11-20T08:30:00;7.80;99.90
7762;DHT22;3925;48.636;9.516;2022-11-20T08:32:27;7.70;99.90
7762;DHT22;3925;48.636;9.516;2022-11-20T08:34:54;7.70;99.90
7762;DHT22;3925;48.636;9.516;2022-11-20T08:37:21;7.80;99.90
7762;DHT22;3925;48.636;9.516;2022-11-20T08:39:49;7.80;99.90
7762;DHT22;3925;48.636;9.516;2022-11-20T08:42:16;7.70;99.90
7762;DHT22;3925;48.636;9.516;2022-11-20T08:44:42;7.60;99.90
7762;DHT22;3925;48.636;9.516;2022-11-20T08:47:09;7.70;99.90
7762;DHT22;3925;48.636;9.516;2022-11-20T08:49:36;7.80;99.90
7762;DHT22;3925;48.636;9.516;2022-11-20T08:52:03;7.80;99.90
7762;DHT22;3925;48.636;9.516;2022-11-20T08:54:31;7.80;99.90
7762;DHT22;3925;48.636;9.516;2022-11-20T08:56:59;7.80;99.90
7762;DHT22;3925;48.636;9.516;2022-11-20T08:59:26;7.80;99.90
7762;DHT22;3925;48.636;9.516;2022-11-20T09:01:52;7.90;99.90
7762;DHT22;3925;48.636;9.516;2022-11-20T09:04:19;7.90;99.90
7762;DHT22;3925;48.636;9.516;2022-11-20T09:06:46;7.90;99.90
7762;DHT22;3925;48.636;9.516;2022-11-20T09:09:16;7.80;99.90
7762;DHT22;3925;48.636;9.516;2022-11-20T09:11:43;7.80;99.90
7762;DHT22;3925;48.636;9.516;2022-11-20T09:14:11;7.80;99.90
7762;DHT22;3925;48.636;9.516;2022-11-20T09:16:38;7.80;99.90
7762;DHT22;3925;48.636;9.516;2022-11-20T09:19:05;7.90;99.90
7762;DHT22;3925;48.636;9.516;2022-11-20T09:21:32;7.90;99.90
7762;DHT22;3925;48.636;9.516;2022-11-20T09:23:59;7.80;99.90
7762;DHT22;3925;48.636;9.516;2022-11-20T09:26:25;7.80;99.90
7762;DHT22;3925;48.636;9.516;2022-11-20T09:28:53;7.90;99.90
7762;DHT22;3925;48.636;9.516;2022-11-20T09:31:23;7.80;99.90
7762;DHT22;3925;48.636;9.516;2022-11-20T09:33:50;7.80;99.90
7762;DHT22;3925;48.636;9.516;2022-11-20T09:36:16;7.80;99.90
7762;DHT22;3925;48.636;9.516;2022-11-20T09:38:44;7.80;99.90
7762;DHT22;3925;48.636;9.516;2022-11-20T09:41:27;7.90;99.90
7762;DHT22;3925;48.636;9.516;2022-11-20T09:44:01;7.80;99.90
7762;DHT22;3925;48.636;9.516;2022-11-20T09:46:38;7.80;99.90
7762;DHT22;3925;48.636;9.516;2022-11-20T09:49:23;7.90;99.90
7762;DHT22;3925;48.636;9.516;2022-11-20T09:51:57;7.80;99.90
7762;DHT22;3925;48.636;9.516;2022-11-20T09:54:27;7.90;99.90
7762;DHT22;3925;48.636;9.516;2022-11-20T09:56:59;7.80;99.90
7762;DHT22;3925;48.636;9.516;2022-11-20T09:59:33;7.80;99.90
7762;DHT22;3925;48.636;9.516;2022-11-20T10:02:08;7.80;99.90
7762;DHT22;3925;48.636;9.516;2022-11-20T10:04:43;7.80;99.90
7762;DHT22;3925;48.636;9.516;2022-11-20T10:07:15;7.90;99.90
7762;DHT22;3925;48.636;9.516;2022-11-20T10:09:50;7.80;99.90
7762;DHT22;3925;48.636;9.516;2022-11-20T10:12:22;7.90;99.90
7762;DHT22;3925;48.636;9.516;2022-11-20T10:15:00;7.90;99.90
7762;DHT22;3925;48.636;9.516;2022-11-20T10:17:49;7.90;99.90
7762;DHT22;3925;48.636;9.516;2022-11-20T10:20:24;7.90;99.90
7762;DHT22;3925;48.636;9.516;2022-11-20T10:23:05;7.90;99.90
7762;DHT22;3925;48.636;9.516;2022-11-20T10:25:38;7.90;99.90
7762;DHT22;3925;48.636;9.516;2022-11-20T10:28:34;7.90;99.90
7762;DHT22;3925;48.636;9.516;2022-11-20T10:31:08;7.90;99.90
7762;DHT22;3925;48.636;9.516;2022-11-20T10:33:40;8.00;99.90
7762;DHT22;3925;48.636;9.516;2022-11-20T10:36:15;8.00;99.90
7762;DHT22;3925;48.636;9.516;2022-11-20T10:38:48;8.00;99.90
7762;DHT22;3925;48.636;9.516;2022-11-20T10:41:21;8.00;99.90
7762;DHT22;3925;48.636;9.516;2022-11-20T10:43:57;7.90;99.90
7762;DHT22;3925;48.636;9.516;2022-11-20T10:46:36;7.90;99.90
7762;DHT22;3925;48.636;9.516;2022-11-20T10:49:13;7.90;99.90
7762;DHT22;3925;48.636;9.516;2022-11-20T10:51:52;7.90;99.90
7762;DHT22;3925;48.636;9.516;2022-11-20T10:54:31;7.90;99.90
7762;DHT22;3925;48.636;9.516;2022-11-20T10:57:05;7.80;99.90
7762;DHT22;3925;48.636;9.516;2022-11-20T10:59:48;7.70;99.90
7762;DHT22;3925;48.636;9.516;2022-11-20T11:02:22;7.70;99.90
7762;DHT22;3925;48.636;9.516;2022-11-20T11:04:53;7.60;99.90
7762;DHT22;3925;48.636;9.516;2022-11-20T11:07:23;7.60;99.90
7762;DHT22;3925;48.636;9.516;2022-11-20T11:09:53;7.60;99.90
7762;DHT22;3925;48.636;9.516;2022-11-20T11:12:21;7.60;99.90
7762;DHT22;3925;48.636;9.516;2022-11-20T11:14:50;7.60;99.90
7762;DHT22;3925;48.636;9.516;2022-11-20T11:17:22;7.70;99.90
7762;DHT22;3925;48.636;9.516;2022-11-20T11:20:06;7.70;99.90
7762;DHT22;3925;48.636;9.516;2022-11-20T11:22:44;7.70;99.90
7762;DHT22;3925;48.636;9.516;2022-11-20T11:25:20;7.80;99.90
7762;DHT22;3925;48.636;9.516;2022-11-20T11:27:50;7.90;99.90
7762;DHT22;3925;48.636;9.516;2022-11-20T11:30:18;7.80;99.90
7762;DHT22;3925;48.636;9.516;2022-11-20T11:32:46;7.90;99.90
7762;DHT22;3925;48.636;9.516;2022-11-20T11:35:26;7.80;99.90
7762;DHT22;3925;48.636;9.516;2022-11-20T11:38:02;7.90;99.90
7762;DHT22;3925;48.636;9.516;2022-11-20T11:40:31;7.90;99.90
7762;DHT22;3925;48.636;9.516;2022-11-20T11:43:01;8.00;99.90
7762;DHT22;3925;48.636;9.516;2022-11-20T11:45:28;8.10;99.90
7762;DHT22;3925;48.636;9.516;2022-11-20T11:47:56;8.20;99.90
7762;DHT22;3925;48.636;9.516;2022-11-20T11:50:26;8.10;99.90
7762;DHT22;3925;48.636;9.516;2022-11-20T11:53:02;8.30;99.90
7762;DHT22;3925;48.636;9.516;2022-11-20T11:55:36;8.40;99.90
7762;DHT22;3925;48.636;9.516;2022-11-20T11:58:19;8.40;99.90
7762;DHT22;3925;48.636;9.516;2022-11-20T12:00:53;8.40;99.90
7762;DHT22;3925;48.636;9.516;2022-11-20T12:03:27;8.50;99.90
7762;DHT22;3925;48.636;9.516;2022-11-20T12:05:58;8.50;99.90
7762;DHT22;3925;48.636;9.516;2022-11-20T12:08:29;8.50;99.90
7762;DHT22;3925;48.636;9.516;2022-11-20T12:11:03;8.60;99.90
7762;DHT22;3925;48.636;9.516;2022-11-20T12:13:48;9.30;99.90
7762;DHT22;3925;48.636;9.516;2022-11-20T12:16:19;10.00;99.90
7762;DHT22;3925;48.636;9.516;2022-11-20T12:18:49;10.60;99.90
7762;DHT22;3925;48.636;9.516;2022-11-20T12:21:26;11.40;99.90
7762;DHT22;3925;48.636;9.516;2022-11-20T12:24:13;11.90;99.90
7762;DHT22;3925;48.636;9.516;2022-11-20T12:26:53;12.30;99.90
7762;DHT22;3925;48.636;9.516;2022-11-20T12:29:32;12.30;99.90
7762;DHT22;3925;48.636;9.516;2022-11-20T12:32:22;12.20;99.90
7762;DHT22;3925;48.636;9.516;2022-11-20T12:35:00;11.70;99.90
7762;DHT22;3925;48.636;9.516;2022-11-20T12:37:42;10.80;99.90
7762;DHT22;3925;48.636;9.516;2022-11-20T12:40:22;10.40;99.90
7762;DHT22;3925;48.636;9.516;2022-11-20T12:43:04;10.00;99.90
7762;DHT22;3925;48.636;9.516;2022-11-20T12:45:57;9.70;99.90
7762;DHT22;3925;48.636;9.516;2022-11-20T12:51:47;9.70;99.90
7762;DHT22;3925;48.636;9.516;2022-11-20T12:54:34;9.60;99.90
7762;DHT22;3925;48.636;9.516;2022-11-20T12:57:06;9.40;99.90
7762;DHT22;3925;48.636;9.516;2022-11-20T12:59:51;9.30;99.90
7762;DHT22;3925;48.636;9.516;2022-11-20T13:02:35;9.30;99.90
7762;DHT22;3925;48.636;9.516;2022-11-20T13:05:15;9.20;99.90
7762;DHT22;3925;48.636;9.516;2022-11-20T13:07:44;9.00;99.90
7762;DHT22;3925;48.636;9.516;2022-11-20T13:10:20;9.10;99.90
7762;DHT22;3925;48.636;9.516;2022-11-20T13:12:51;9.10;99.90
7762;DHT22;3925;48.636;9.516;2022-11-20T13:15:33;9.00;99.90
7762;DHT22;3925;48.636;9.516;2022-11-20T13:18:06;8.90;99.90
7762;DHT22;3925;48.636;9.516;2022-11-20T13:20:36;8.90;99.90
7762;DHT22;3925;48.636;9.516;2022-11-20T13:23:03;8.90;99.90
7762;DHT22;3925;48.636;9.516;2022-11-20T13:25:32;8.90;99.90
7762;DHT22;3925;48.636;9.516;2022-11-20T13:28:01;8.70;99.90
7762;DHT22;3925;48.636;9.516;2022-11-20T13:30:31;8.70;99.90
7762;DHT22;3925;48.636;9.516;2022-11-20T13:33:03;8.60;99.90
7762;DHT22;3925;48.636;9.516;2022-11-20T13:35:33;8.60;99.90
7762;DHT22;3925;48.636;9.516;2022-11-20T13:38:04;8.50;99.90
7762;DHT22;3925;48.636;9.516;2022-11-20T13:40:33;8.60;99.90
7762;DHT22;3925;48.636;9.516;2022-11-20T13:43:07;8.70;99.90
7762;DHT22;3925;48.636;9.516;2022-11-20T13:45:37;8.60;99.90
7762;DHT22;3925;48.636;9.516;2022-11-20T13:48:15;8.60;99.90
7762;DHT22;3925;48.636;9.516;2022-11-20T13:50:52;8.70;99.90
7762;DHT22;3925;48.636;9.516;2022-11-20T13:53:33;8.70;99.90
7762;DHT22;3925;48.636;9.516;2022-11-20T13:56:10;8.80;99.90
7762;DHT22;3925;48.636;9.516;2022-11-20T13:58:49;8.80;99.90
7762;DHT22;3925;48.636;9.516;2022-11-20T14:01:22;8.90;99.90
7762;DHT22;3925;48.636;9.516;2022-11-20T14:03:50;8.80;99.90
7762;DHT22;3925;48.636;9.516;2022-11-20T14:06:26;8.70;99.90
7762;DHT22;3925;48.636;9.516;2022-11-20T14:08:54;8.90;99.90
7762;DHT22;3925;48.636;9.516;2022-11-20T14:11:24;8.70;99.90
7762;DHT22;3925;48.636;9.516;2022-11-20T14:13:57;8.70;99.90
7762;DHT22;3925;48.636;9.516;2022-11-20T14:16:26;8.70;99.90
7762;DHT22;3925;48.636;9.516;2022-11-20T14:18:54;8.70;99.90
7762;DHT22;3925;48.636;9.516;2022-11-20T14:21:22;8.80;99.90
7762;DHT22;3925;48.636;9.516;2022-11-20T14:23:53;8.70;99.90
7762;DHT22;3925;48.636;9.516;2022-11-20T14:26:20;8.80;99.90
7762;DHT22;3925;48.636;9.516;2022-11-20T14:28:50;8.80;99.90
7762;DHT22;3925;48.636;9.516;2022-11-20T14:31:23;8.70;99.90
7762;DHT22;3925;48.636;9.516;2022-11-20T14:33:51;8.70;99.90
7762;DHT22;3925;48.636;9.516;2022-11-20T14:36:20;8.80;99.90
7762;DHT22;3925;48.636;9.516;2022-11-20T14:38:47;8.70;99.90
7762;DHT22;3925;48.636;9.516;2022-11-20T14:41:19;8.60;99.90
7762;DHT22;3925;48.636;9.516;2022-11-20T14:43:50;8.50;99.90
7762;DHT22;3925;48.636;9.516;2022-11-20T14:46:17;8.40;99.90
7762;DHT22;3925;48.636;9.516;2022-11-20T14:48:47;8.30;99.90
7762;DHT22;3925;48.636;9.516;2022-11-20T14:51:27;8.20;99.90
7762;DHT22;3925;48.636;9.516;2022-11-20T14:53:54;8.20;99.90
7762;DHT22;3925;48.636;9.516;2022-11-20T14:56:22;8.10;99.90
7762;DHT22;3925;48.636;9.516;2022-11-20T14:58:57;8.10;99.90
7762;DHT22;3925;48.636;9.516;2022-11-20T15:01:28;7.90;99.90
7762;DHT22;3925;48.636;9.516;2022-11-20T15:04:06;7.90;99.90
7762;DHT22;3925;48.636;9.516;2022-11-20T15:06:34;8.00;99.90
7762;DHT22;3925;48.636;9.516;2022-11-20T15:09:02;8.00;99.90
7762;DHT22;3925;48.636;9.516;2022-11-20T15:11:32;8.00;99.90
7762;DHT22;3925;48.636;9.516;2022-11-20T15:14:04;8.10;99.90
7762;DHT22;3925;48.636;9.516;2022-11-20T15:16:32;8.10;99.90
7762;DHT22;3925;48.636;9.516;2022-11-20T15:19:00;8.10;99.90
7762;DHT22;3925;48.636;9.516;2022-11-20T15:21:29;8.10;99.90
7762;DHT22;3925;48.636;9.516;2022-11-20T15:23:56;8.00;99.90
7762;DHT22;3925;48.636;9.516;2022-11-20T15:26:26;8.10;99.90
7762;DHT22;3925;48.636;9.516;2022-11-20T15:28:53;8.10;99.90
7762;DHT22;3925;48.636;9.516;2022-11-20T15:31:23;8.10;99.90
7762;DHT22;3925;48.636;9.516;2022-11-20T15:33:50;8.00;99.90
7762;DHT22;3925;48.636;9.516;2022-11-20T15:36:17;8.00;99.90
7762;DHT22;3925;48.636;9.516;2022-11-20T15:38:44;7.90;99.90
7762;DHT22;3925;48.636;9.516;2022-11-20T15:41:11;7.90;99.90
7762;DHT22;3925;48.636;9.516;2022-11-20T15:43:38;7.90;99.90
7762;DHT22;3925;48.636;9.516;2022-11-20T15:46:06;7.80;99.90
7762;DHT22;3925;48.636;9.516;2022-11-20T15:48:39;7.70;99.90
7762;DHT22;3925;48.636;9.516;2022-11-20T15:51:14;7.70;99.90
7762;DHT22;3925;48.636;9.516;2022-11-20T15:53:44;7.60;99.90
7762;DHT22;3925;48.636;9.516;2022-11-20T15:56:13;7.60;99.90
7762;DHT22;3925;48.636;9.516;2022-11-20T15:58:40;7.50;99.90
7762;DHT22;3925;48.636;9.516;2022-11-20T16:01:10;7.50;99.90
7762;DHT22;3925;48.636;9.516;2022-11-20T16:03:38;7.40;99.90
7762;DHT22;3925;48.636;9.516;2022-11-20T16:06:05;7.50;99.90
7762;DHT22;3925;48.636;9.516;2022-11-20T16:08:32;7.50;99.90
7762;DHT22;3925;48.636;9.516;2022-11-20T16:10:59;7.60;99.90
7762;DHT22;3925;48.636;9.516;2022-11-20T16:13:26;7.50;99.90
7762;DHT22;3925;48.636;9.516;2022-11-20T16:16:16;7.50;99.90
7762;DHT22;3925;48.636;9.516;2022-11-20T16:18:46;7.40;99.90
7762;DHT22;3925;48.636;9.516;2022-11-20T16:21:13;7.30;99.90
7762;DHT22;3925;48.636;9.516;2022-11-20T16:23:40;7.20;99.90
7762;DHT22;3925;48.636;9.516;2022-11-20T16:26:12;7.30;99.90
7762;DHT22;3925;48.636;9.516;2022-11-20T16:28:39;7.10;99.90
7762;DHT22;3925;48.636;9.516;2022-11-20T16:31:10;7.20;99.90
7762;DHT22;3925;48.636;9.516;2022-11-20T16:33:37;7.20;99.90
7762;DHT22;3925;48.636;9.516;2022-11-20T16:36:19;7.20;99.90
7762;DHT22;3925;48.636;9.516;2022-11-20T16:38:46;7.10;99.90